createdAt,value
2024-01-15T00:02:02.486Z,0.48
2024-01-15T00:04:29.188Z,0.46
2024-01-15T00:06:55.923Z,0.41
2024-01-15T00:09:22.462Z,0.34
2024-01-15T00:11:48.959Z,0.30
2024-01-15T00:14:15.715Z,0.28
2024-01-15T00:16:42.705Z,0.24
2024-01-15T00:19:09.313Z,0.20
2024-01-15T00:21:35.877Z,0.16
2024-01-15T00:24:02.431Z,0.15
2024-01-15T00:26:28.928Z,0.12
2024-01-15T00:28:55.447Z,0.11
2024-01-15T00:31:21.955Z,0.09
2024-01-15T00:33:48.593Z,0.08
2024-01-15T00:36:15.731Z,0.05
2024-01-15T00:38:42.442Z,0.02
2024-01-15T00:41:09.018Z,-0.04
2024-01-15T00:43:35.641Z,-0.07
2024-01-15T00:46:05.095Z,-0.10
2024-01-15T00:48:31.757Z,-0.13
2024-01-15T00:50:58.344Z,-0.18
2024-01-15T00:53:24.912Z,-0.22
2024-01-15T00:55:51.369Z,-0.22
2024-01-15T00:58:18.016Z,-0.22
2024-01-15T01:00:44.713Z,-0.23
2024-01-15T01:03:11.432Z,-0.25
2024-01-15T01:05:38.711Z,-0.28
2024-01-15T01:08:05.461Z,-0.30
2024-01-15T01:10:31.951Z,-0.34
2024-01-15T01:12:58.481Z,-0.36
2024-01-15T01:15:25.728Z,-0.38
2024-01-15T01:17:52.485Z,-0.42
2024-01-15T01:20:19.690Z,-0.42
2024-01-15T01:22:46.507Z,-0.43
2024-01-15T01:25:12.995Z,-0.44
2024-01-15T01:27:39.641Z,-0.45
2024-01-15T01:30:06.917Z,-0.50
2024-01-15T01:32:33.549Z,-0.50
2024-01-15T01:35:00.395Z,-0.50
2024-01-15T01:37:26.973Z,-0.44
2024-01-15T01:39:53.613Z,-0.42
2024-01-15T01:42:20.147Z,-0.41
2024-01-15T01:44:46.695Z,-0.39
2024-01-15T01:47:13.942Z,-0.38
2024-01-15T01:49:40.849Z,-0.38
2024-01-15T01:52:08.370Z,-0.38
2024-01-15T01:54:36.485Z,-0.37
2024-01-15T01:57:04.716Z,-0.38
2024-01-15T01:59:31.840Z,-0.38
2024-01-15T02:01:58.441Z,-0.35
2024-01-15T02:04:25.648Z,-0.32
2024-01-15T02:06:53.154Z,-0.27
2024-01-15T02:09:19.980Z,-0.25
2024-01-15T02:11:49.909Z,-0.20
2024-01-15T02:14:17.104Z,-0.05
2024-01-15T02:16:43.641Z,0.11
2024-01-15T02:19:17.315Z,0.29
2024-01-15T02:21:44.191Z,0.40
2024-01-15T02:24:11.060Z,0.44
2024-01-15T02:26:39.264Z,0.44
2024-01-15T02:29:09.833Z,0.44
2024-01-15T02:31:37.917Z,0.46
2024-01-15T02:34:04.792Z,0.48
2024-01-15T02:36:31.550Z,0.48
2024-01-15T02:38:58.252Z,0.52
2024-01-15T02:41:24.816Z,0.50
2024-01-15T02:43:51.480Z,0.50
2024-01-15T02:46:17.965Z,0.52
2024-01-15T02:48:44.727Z,0.53
2024-01-15T02:51:11.441Z,0.55
2024-01-15T02:53:38.412Z,0.58
2024-01-15T02:56:05.267Z,0.59
2024-01-15T02:58:32.167Z,0.62
2024-01-15T03:00:59.276Z,0.62
2024-01-15T03:03:26.111Z,0.60
2024-01-15T03:05:52.950Z,0.60
2024-01-15T03:08:19.533Z,0.62
2024-01-15T03:10:46.034Z,0.62
2024-01-15T03:13:12.469Z,0.62
2024-01-15T03:15:38.981Z,0.63
2024-01-15T03:18:05.971Z,0.63
2024-01-15T03:20:32.471Z,0.62
2024-01-15T03:22:58.920Z,0.61
2024-01-15T03:25:25.466Z,0.58
2024-01-15T03:27:51.918Z,0.55
2024-01-15T03:30:18.653Z,0.52
2024-01-15T03:32:45.234Z,0.50
2024-01-15T03:35:11.779Z,0.46
2024-01-15T03:37:38.432Z,0.47
2024-01-15T03:40:05.857Z,0.48
2024-01-15T03:42:32.620Z,0.34
2024-01-15T03:44:59.229Z,0.26
2024-01-15T03:47:25.807Z,0.33
2024-01-15T03:49:52.361Z,0.39
2024-01-15T03:52:18.864Z,0.45
2024-01-15T03:54:45.417Z,0.52
2024-01-15T03:57:11.946Z,0.54
2024-01-15T03:59:38.452Z,0.55
2024-01-15T04:02:05.418Z,0.53
2024-01-15T04:04:32.139Z,0.45
2024-01-15T04:06:58.724Z,0.38
2024-01-15T04:09:25.300Z,0.30
2024-01-15T04:11:51.841Z,0.26
2024-01-15T04:14:18.672Z,0.21
2024-01-15T04:16:45.154Z,0.18
2024-01-15T04:19:11.680Z,0.11
2024-01-15T04:21:38.249Z,0.08
2024-01-15T04:24:05.146Z,0.06
2024-01-15T04:26:31.643Z,0.04
2024-01-15T04:28:58.776Z,0.02
2024-01-15T04:31:28.094Z,-0.01
2024-01-15T04:33:54.872Z,-0.04
2024-01-15T04:36:21.582Z,-0.08
2024-01-15T04:38:48.034Z,-0.09
2024-01-15T04:41:16.137Z,-0.07
2024-01-15T04:43:42.630Z,-0.08
2024-01-15T04:46:09.615Z,-0.08
2024-01-15T04:48:36.446Z,-0.07
2024-01-15T04:51:06.046Z,-0.08
2024-01-15T04:53:34.103Z,-0.08
2024-01-15T04:56:00.553Z,-0.08
2024-01-15T04:58:28.361Z,-0.11
2024-01-15T05:00:55.554Z,-0.12
2024-01-15T05:03:22.416Z,-0.06
2024-01-15T05:05:48.998Z,-0.04
2024-01-15T05:08:15.471Z,-0.01
2024-01-15T05:10:41.934Z,0.03
2024-01-15T05:13:08.469Z,0.05
2024-01-15T05:15:34.937Z,0.05
2024-01-15T05:18:01.532Z,0.06
2024-01-15T05:20:28.129Z,0.06
2024-01-15T05:22:54.661Z,0.06
2024-01-15T05:25:21.173Z,0.07
2024-01-15T05:27:47.693Z,0.08
2024-01-15T05:30:14.669Z,0.13
2024-01-15T05:32:41.558Z,0.13
2024-01-15T05:35:08.329Z,0.12
2024-01-15T05:37:34.886Z,0.14
2024-01-15T05:40:01.781Z,0.14
2024-01-15T05:42:31.042Z,0.14
2024-01-15T05:44:57.551Z,0.15
2024-01-15T05:47:24.796Z,0.20
2024-01-15T05:49:51.513Z,0.21
2024-01-15T05:52:18.364Z,0.24
2024-01-15T05:54:44.914Z,0.25
2024-01-15T05:57:11.423Z,0.26
2024-01-15T05:59:37.916Z,0.29
2024-01-15T06:02:04.723Z,0.29
2024-01-15T06:04:31.324Z,0.30
2024-01-15T06:06:57.987Z,0.34
2024-01-15T06:09:24.608Z,0.36
2024-01-15T06:11:51.140Z,0.36
2024-01-15T06:14:17.627Z,0.36
2024-01-15T06:16:44.162Z,0.33
2024-01-15T06:19:10.749Z,0.25
2024-01-15T06:21:37.485Z,0.22
2024-01-15T06:24:04.210Z,0.17
2024-01-15T06:26:30.779Z,0.11
2024-01-15T06:28:57.240Z,0.11
2024-01-15T06:31:23.841Z,0.08
2024-01-15T06:33:50.555Z,0.12
2024-01-15T06:36:20.090Z,0.11
2024-01-15T06:38:46.642Z,0.09
2024-01-15T06:41:13.176Z,0.09
2024-01-15T06:43:39.700Z,0.08
2024-01-15T06:46:07.963Z,0.05
2024-01-15T06:48:35.409Z,0.05
2024-01-15T06:51:02.008Z,0.04
2024-01-15T06:53:28.492Z,0.04
2024-01-15T06:55:55.020Z,0.01
2024-01-15T06:58:21.576Z,-0.02
2024-01-15T07:00:48.225Z,-0.04
2024-01-15T07:03:14.868Z,-0.06
2024-01-15T07:05:41.561Z,-0.07
2024-01-15T07:08:08.145Z,-0.07
2024-01-15T07:10:37.176Z,-0.06
2024-01-15T07:13:04.216Z,-0.03
2024-01-15T07:15:30.708Z,0.00
2024-01-15T07:17:57.658Z,0.01
2024-01-15T07:20:24.128Z,-0.05
2024-01-15T07:22:50.630Z,-0.10
2024-01-15T07:25:17.353Z,-0.07
2024-01-15T07:27:45.803Z,-0.07
2024-01-15T07:30:13.479Z,-0.07
2024-01-15T07:32:40.240Z,-0.06
2024-01-15T07:35:06.954Z,-0.07
2024-01-15T07:37:34.373Z,-0.09
2024-01-15T07:40:01.565Z,-0.11
2024-01-15T07:42:28.405Z,-0.11
2024-01-15T07:44:54.866Z,-0.09
2024-01-15T07:47:21.468Z,-0.08
2024-01-15T07:49:48.051Z,-0.06
2024-01-15T07:52:14.755Z,-0.03
2024-01-15T07:54:41.355Z,-0.02
2024-01-15T07:57:07.878Z,-0.02
2024-01-15T07:59:35.973Z,-0.01
2024-01-15T08:02:02.620Z,-0.01
2024-01-15T08:04:29.511Z,0.00
2024-01-15T08:06:56.224Z,0.01
2024-01-15T08:09:23.100Z,-0.02
2024-01-15T08:11:53.058Z,-0.01
2024-01-15T08:14:19.526Z,-0.04
2024-01-15T08:16:46.013Z,-0.05
2024-01-15T08:19:12.776Z,-0.05
2024-01-15T08:21:39.568Z,-0.05
2024-01-15T08:24:07.104Z,-0.05
2024-01-15T08:26:33.891Z,-0.04
2024-01-15T08:29:00.474Z,-0.04
2024-01-15T08:31:27.499Z,-0.03
2024-01-15T08:33:54.251Z,-0.01
2024-01-15T08:36:20.865Z,0.02
2024-01-15T08:38:47.409Z,0.00
2024-01-15T08:41:14.869Z,0.01
2024-01-15T08:43:41.393Z,0.03
2024-01-15T08:46:08.396Z,0.04
2024-01-15T08:48:35.270Z,0.05
2024-01-15T08:51:01.815Z,0.08
2024-01-15T08:53:28.995Z,0.10
2024-01-15T08:55:55.600Z,0.16
2024-01-15T08:58:22.118Z,0.23
2024-01-15T09:00:48.718Z,0.31
2024-01-15T09:03:15.613Z,0.37
2024-01-15T09:05:42.591Z,0.45
2024-01-15T09:08:09.442Z,0.53
2024-01-15T09:10:35.970Z,0.59
2024-01-15T09:13:02.645Z,0.63
2024-01-15T09:15:29.329Z,0.65
2024-01-15T09:17:55.980Z,0.64
2024-01-15T09:20:22.537Z,0.58
2024-01-15T09:22:49.094Z,0.57
2024-01-15T09:25:15.752Z,0.60
2024-01-15T09:27:42.234Z,0.61
2024-01-15T09:30:09.557Z,0.57
2024-01-15T09:32:36.492Z,0.56
2024-01-15T09:35:03.203Z,0.54
2024-01-15T09:37:41.254Z,0.50
2024-01-15T09:40:15.757Z,0.43
2024-01-15T09:42:43.645Z,0.48
2024-01-15T09:45:10.852Z,0.58
2024-01-15T09:47:40.621Z,0.67
2024-01-15T09:50:10.115Z,0.81
2024-01-15T09:52:37.354Z,0.86
2024-01-15T09:55:06.408Z,0.86
2024-01-15T09:57:33.859Z,0.80
2024-01-15T10:00:05.342Z,0.79
2024-01-15T10:02:32.152Z,0.76
2024-01-15T10:04:58.991Z,0.73
2024-01-15T10:07:27.408Z,0.72
2024-01-15T10:09:54.308Z,0.80
2024-01-15T10:12:23.273Z,1.05
2024-01-15T10:14:50.593Z,1.42
2024-01-15T10:17:18.215Z,1.45
2024-01-15T10:19:49.845Z,1.30
2024-01-15T10:22:19.045Z,1.17
2024-01-15T10:24:46.585Z,1.10
2024-01-15T10:27:13.442Z,1.18
2024-01-15T10:29:40.065Z,1.30
2024-01-15T10:32:12.266Z,1.23
2024-01-15T10:34:40.987Z,1.11
2024-01-15T10:37:09.356Z,1.04
2024-01-15T10:39:36.897Z,1.00
2024-01-15T10:42:04.272Z,0.93
2024-01-15T10:44:30.726Z,0.85
2024-01-15T10:46:58.062Z,0.81
2024-01-15T10:49:31.506Z,0.87
2024-01-15T10:52:00.076Z,1.05
2024-01-15T10:54:28.642Z,1.10
2024-01-15T10:56:57.440Z,1.09
2024-01-15T10:59:24.233Z,1.09
2024-01-15T11:01:55.267Z,1.17
2024-01-15T11:04:24.091Z,1.22
2024-01-15T11:06:55.429Z,1.24
2024-01-15T11:09:23.733Z,1.32
2024-01-15T11:11:53.897Z,1.44
2024-01-15T11:14:45.593Z,1.40
2024-01-15T11:17:13.210Z,1.37
2024-01-15T11:19:42.617Z,1.32
2024-01-15T11:22:10.585Z,1.33
2024-01-15T11:24:41.464Z,1.32
2024-01-15T11:27:08.859Z,1.29
2024-01-15T11:29:38.815Z,1.31
2024-01-15T11:32:08.429Z,1.28
2024-01-15T11:34:59.980Z,1.32
2024-01-15T11:37:28.284Z,1.46
2024-01-15T11:39:56.904Z,1.65
2024-01-15T11:42:23.920Z,1.75
2024-01-15T11:44:51.387Z,1.74
2024-01-15T11:47:41.388Z,1.70
2024-01-15T11:50:09.486Z,1.76
2024-01-15T11:52:37.537Z,1.92
2024-01-15T11:55:14.023Z,1.93
2024-01-15T11:57:40.503Z,1.97
2024-01-15T12:00:09.092Z,2.06
2024-01-15T12:02:41.425Z,2.16
2024-01-15T12:05:09.479Z,2.24
2024-01-15T12:07:36.042Z,2.24
2024-01-15T12:10:03.521Z,2.31
2024-01-15T12:12:45.478Z,2.27
2024-01-15T12:15:12.144Z,2.18
2024-01-15T12:17:39.750Z,2.06
2024-01-15T12:20:07.372Z,2.02
2024-01-15T12:22:48.272Z,1.94
2024-01-15T12:25:20.830Z,1.80
2024-01-15T12:27:47.580Z,1.73
2024-01-15T12:30:17.581Z,1.67
2024-01-15T12:32:44.478Z,1.71
2024-01-15T12:35:12.420Z,1.69
2024-01-15T12:37:40.698Z,1.67
2024-01-15T12:40:08.930Z,1.73
2024-01-15T12:42:35.411Z,1.73
2024-01-15T12:45:02.203Z,1.70
2024-01-15T12:47:28.842Z,1.68
2024-01-15T12:49:59.910Z,1.50
2024-01-15T12:52:33.520Z,1.40
2024-01-15T12:55:00.033Z,1.32
2024-01-15T12:57:26.569Z,1.28
2024-01-15T12:59:55.506Z,1.28
2024-01-15T13:02:21.965Z,1.30
2024-01-15T13:04:48.596Z,1.34
2024-01-15T13:07:15.439Z,1.31
2024-01-15T13:09:42.016Z,1.27
2024-01-15T13:12:08.830Z,1.26
2024-01-15T13:14:35.648Z,1.20
2024-01-15T13:17:02.233Z,1.15
2024-01-15T13:19:28.894Z,1.12
2024-01-15T13:21:55.763Z,1.09
2024-01-15T13:24:25.071Z,1.07
2024-01-15T13:26:51.521Z,1.09
2024-01-15T13:29:17.991Z,1.18
2024-01-15T13:31:47.456Z,1.29
2024-01-15T13:34:14.254Z,1.40
2024-01-15T13:36:41.212Z,1.45
2024-01-15T13:39:10.731Z,1.53
2024-01-15T13:41:37.604Z,1.60
2024-01-15T13:44:04.704Z,1.62
2024-01-15T13:46:31.306Z,1.65
2024-01-15T13:48:57.797Z,1.70
2024-01-15T13:51:24.722Z,1.82
2024-01-15T13:53:51.891Z,1.84
2024-01-15T13:56:20.290Z,1.85
2024-01-15T13:58:49.144Z,1.85
2024-01-15T14:01:15.736Z,1.82
2024-01-15T14:03:42.403Z,1.82
2024-01-15T14:06:09.927Z,1.78
2024-01-15T14:08:37.747Z,1.77
2024-01-15T14:11:07.101Z,1.76
2024-01-15T14:13:34.737Z,1.75
2024-01-15T14:16:01.627Z,1.87
2024-01-15T14:18:30.999Z,1.96
2024-01-15T14:20:59.390Z,2.05
2024-01-15T14:23:25.887Z,2.00
2024-01-15T14:25:52.339Z,1.92
2024-01-15T14:28:18.786Z,1.91
2024-01-15T14:30:45.348Z,2.00
2024-01-15T14:33:12.100Z,2.09
2024-01-15T14:35:38.656Z,2.13
2024-01-15T14:38:05.147Z,2.21
2024-01-15T14:40:31.699Z,2.33
2024-01-15T14:42:58.339Z,2.39
2024-01-15T14:45:24.814Z,2.37
2024-01-15T14:47:51.419Z,2.30
2024-01-15T14:50:18.010Z,2.15
2024-01-15T14:52:45.843Z,2.00
2024-01-15T14:55:12.591Z,1.89
2024-01-15T14:57:39.254Z,1.89
2024-01-15T15:00:08.659Z,1.94
2024-01-15T15:02:38.880Z,1.97
2024-01-15T15:05:05.796Z,1.98
2024-01-15T15:07:32.378Z,1.98
2024-01-15T15:09:59.193Z,1.90
2024-01-15T15:12:25.885Z,1.87
2024-01-15T15:14:59.902Z,1.80
2024-01-15T15:17:35.709Z,1.68
2024-01-15T15:20:03.875Z,1.56
2024-01-15T15:22:30.692Z,1.44
2024-01-15T15:24:57.426Z,1.34
2024-01-15T15:27:24.172Z,1.28
2024-01-15T15:29:51.940Z,1.22
2024-01-15T15:32:18.604Z,1.17
2024-01-15T15:34:45.358Z,1.15
2024-01-15T15:37:12.227Z,1.16
2024-01-15T15:39:38.851Z,1.16
2024-01-15T15:42:05.567Z,1.22
2024-01-15T15:44:32.134Z,1.28
2024-01-15T15:46:58.590Z,1.30
2024-01-15T15:49:25.325Z,1.34
2024-01-15T15:51:52.131Z,1.33
2024-01-15T15:54:18.942Z,1.31
2024-01-15T15:56:48.798Z,1.32
2024-01-15T15:59:15.917Z,1.32
2024-01-15T16:01:42.499Z,1.26
2024-01-15T16:04:09.140Z,1.17
2024-01-15T16:06:35.772Z,1.10
2024-01-15T16:09:02.379Z,1.06
2024-01-15T16:11:29.499Z,1.01
2024-01-15T16:13:55.959Z,0.99
2024-01-15T16:23:10.836Z,0.97
2024-01-15T16:23:23.896Z,0.96
2024-01-15T16:23:39.012Z,0.93
2024-01-15T16:24:50.928Z,0.92
2024-01-15T16:27:19.526Z,0.93
2024-01-15T16:29:46.041Z,0.88
2024-01-15T16:32:12.575Z,0.84
2024-01-15T16:34:39.256Z,0.81
2024-01-15T16:37:07.534Z,0.75
2024-01-15T16:39:34.151Z,0.76
2024-01-15T16:42:00.608Z,0.74
2024-01-15T16:44:27.234Z,0.70
2024-01-15T16:46:55.358Z,0.71
2024-01-15T16:49:23.939Z,0.69
2024-01-15T16:51:50.476Z,0.67
2024-01-15T16:54:17.012Z,0.69
2024-01-15T16:56:44.061Z,0.68
2024-01-15T16:59:11.622Z,0.64
2024-01-15T17:01:38.265Z,0.58
2024-01-15T17:04:06.620Z,0.58
2024-01-15T17:06:33.445Z,0.57
2024-01-15T17:09:00.052Z,0.53
2024-01-15T17:11:26.604Z,0.52
2024-01-15T17:13:53.105Z,0.53
2024-01-15T17:16:19.587Z,0.52
2024-01-15T17:18:46.156Z,0.55
2024-01-15T17:21:12.780Z,0.59
2024-01-15T17:23:39.388Z,0.64
2024-01-15T17:26:06.196Z,0.64
2024-01-15T17:28:32.727Z,0.65
2024-01-15T17:30:59.848Z,0.63
2024-01-15T17:33:26.768Z,0.60
2024-01-15T17:35:55.184Z,0.57
2024-01-15T17:38:21.923Z,0.54
2024-01-15T17:40:48.898Z,0.52
2024-01-15T17:43:15.621Z,0.52
2024-01-15T17:45:42.941Z,0.55
2024-01-15T17:48:09.834Z,0.58
2024-01-15T17:50:37.852Z,0.62
2024-01-15T17:53:04.549Z,0.63
2024-01-15T17:55:30.980Z,0.63
2024-01-15T17:57:58.434Z,0.65
2024-01-15T18:00:25.001Z,0.64
2024-01-15T18:02:51.457Z,0.62
2024-01-15T18:05:18.162Z,0.60
2024-01-15T18:07:45.320Z,0.57
2024-01-15T18:10:12.034Z,0.53
2024-01-15T18:12:38.802Z,0.57
2024-01-15T18:15:05.749Z,0.61
2024-01-15T18:17:34.300Z,0.64
2024-01-15T18:20:00.920Z,0.64
2024-01-15T18:22:27.414Z,0.65
2024-01-15T18:24:53.822Z,0.66
2024-01-15T18:27:20.262Z,0.60
2024-01-15T18:29:46.923Z,0.62
2024-01-15T18:32:13.611Z,0.67
2024-01-15T18:34:40.431Z,0.69
2024-01-15T18:37:06.953Z,0.69
2024-01-15T18:39:33.418Z,0.65
2024-01-15T18:42:00.052Z,0.66
2024-01-15T18:44:26.582Z,0.65
2024-01-15T18:46:53.158Z,0.67
2024-01-15T18:49:21.941Z,0.69
2024-01-15T18:51:54.056Z,0.73
2024-01-15T18:54:21.707Z,0.77
2024-01-15T18:56:48.187Z,0.79
2024-01-15T18:59:14.917Z,0.79
2024-01-15T19:01:41.488Z,0.77
2024-01-15T19:04:08.445Z,0.76
2024-01-15T19:06:34.981Z,0.71
2024-01-15T19:09:01.429Z,0.67
2024-01-15T19:11:28.269Z,0.66
2024-01-15T19:13:54.745Z,0.64
2024-01-15T19:16:24.112Z,0.62
2024-01-15T19:18:52.384Z,0.60
2024-01-15T19:21:19.613Z,0.56
2024-01-15T19:23:46.268Z,0.53
2024-01-15T19:26:19.569Z,0.53
2024-01-15T19:28:47.084Z,0.54
2024-01-15T19:31:13.786Z,0.53
2024-01-15T19:33:42.466Z,0.49
2024-01-15T19:36:09.719Z,0.41
2024-01-15T19:38:36.328Z,0.26
2024-01-15T19:41:04.147Z,0.12
2024-01-15T19:43:30.688Z,0.09
2024-01-15T19:45:57.224Z,0.12
2024-01-15T19:48:23.740Z,0.18
2024-01-15T19:50:50.193Z,0.13
2024-01-15T19:53:16.815Z,0.16
2024-01-15T19:55:43.409Z,0.20
2024-01-15T19:58:10.006Z,0.19
2024-01-15T20:00:36.517Z,0.17
2024-01-15T20:03:03.555Z,0.15
2024-01-15T20:05:31.208Z,0.11
2024-01-15T20:07:57.803Z,0.10
2024-01-15T20:10:26.429Z,0.07
2024-01-15T20:12:52.981Z,0.04
2024-01-15T20:15:19.555Z,0.03
2024-01-15T20:17:46.215Z,-0.12
2024-01-15T20:20:12.876Z,-0.26
2024-01-15T20:22:39.493Z,-0.27
2024-01-15T20:25:08.320Z,-0.27
2024-01-15T20:27:35.289Z,-0.29
2024-01-15T20:30:05.444Z,-0.35
2024-01-15T20:32:34.266Z,-0.42
2024-01-15T20:35:01.362Z,-0.52
2024-01-15T20:37:27.807Z,-0.60
2024-01-15T20:39:54.530Z,-0.65
2024-01-15T20:42:20.980Z,-0.69
2024-01-15T20:44:47.509Z,-0.74
2024-01-15T20:47:14.080Z,-0.78
2024-01-15T20:49:40.603Z,-0.79
2024-01-15T20:52:07.262Z,-0.77
2024-01-15T20:54:33.690Z,-0.78
2024-01-15T20:57:02.500Z,-0.80
2024-01-15T20:59:29.001Z,-0.82
2024-01-15T21:01:55.675Z,-0.84
2024-01-15T21:04:23.245Z,-0.89
2024-01-15T21:06:49.743Z,-0.88
2024-01-15T21:09:16.205Z,-0.88
2024-01-15T21:11:42.758Z,-0.88
2024-01-15T21:14:09.541Z,-0.93
2024-01-15T21:16:36.059Z,-1.01
2024-01-15T21:19:02.751Z,-0.99
2024-01-15T21:21:30.060Z,-0.98
2024-01-15T21:23:56.564Z,-0.98
2024-01-15T21:26:23.145Z,-0.98
2024-01-15T21:28:49.727Z,-1.00
2024-01-15T21:31:17.131Z,-1.01
2024-01-15T21:33:46.893Z,-1.02
2024-01-15T21:36:13.811Z,-1.02
2024-01-15T21:38:40.426Z,-1.01
2024-01-15T21:41:06.946Z,-1.03
2024-01-15T21:43:33.471Z,-1.05
2024-01-15T21:46:00.093Z,-1.03
2024-01-15T21:48:26.639Z,-1.02
2024-01-15T21:50:53.358Z,-1.00
2024-01-15T21:53:19.969Z,-1.01
2024-01-15T21:55:46.456Z,-1.01
2024-01-15T21:58:13.042Z,-1.03
2024-01-15T22:00:39.651Z,-1.04
2024-01-15T22:03:06.634Z,-1.06
2024-01-15T22:05:33.315Z,-1.06
2024-01-15T22:07:59.851Z,-1.07
2024-01-15T22:10:26.361Z,-1.11
2024-01-15T22:12:53.537Z,-1.10
2024-01-15T22:15:20.094Z,-1.13
2024-01-15T22:17:46.856Z,-1.14
2024-01-15T22:20:13.475Z,-1.13
2024-01-15T22:22:40.252Z,-1.12
2024-01-15T22:25:07.167Z,-1.14
2024-01-15T22:27:33.619Z,-1.30
2024-01-15T22:30:00.349Z,-1.25
2024-01-15T22:32:30.070Z,-1.14
2024-01-15T22:34:58.322Z,-1.14
2024-01-15T22:37:24.818Z,-1.15
2024-01-15T22:39:51.391Z,-1.16
2024-01-15T22:42:19.578Z,-1.15
2024-01-15T22:44:47.046Z,-1.15
2024-01-15T22:47:13.700Z,-1.15
2024-01-15T22:49:40.154Z,-1.17
2024-01-15T22:52:06.682Z,-1.24
2024-01-15T22:54:33.175Z,-1.27
2024-01-15T22:56:59.601Z,-1.26
2024-01-15T22:59:26.055Z,-1.18
2024-01-15T23:01:53.040Z,-1.17
2024-01-15T23:04:19.568Z,-1.07
2024-01-15T23:06:46.261Z,-1.03
2024-01-15T23:09:12.906Z,-0.96
2024-01-15T23:11:39.371Z,-0.92
2024-01-15T23:14:05.973Z,-0.85
2024-01-15T23:16:32.499Z,-0.82
2024-01-15T23:18:59.083Z,-0.80
2024-01-15T23:21:27.357Z,-0.78
2024-01-15T23:23:54.291Z,-0.75
2024-01-15T23:26:21.326Z,-0.77
2024-01-15T23:28:48.056Z,-0.79
2024-01-15T23:31:14.622Z,-0.82
2024-01-15T23:33:41.243Z,-0.88
2024-01-15T23:36:09.826Z,-0.94
2024-01-15T23:38:39.261Z,-0.97
2024-01-15T23:41:06.346Z,-1.03
2024-01-15T23:43:33.672Z,-1.10
2024-01-15T23:46:06.678Z,-1.12
2024-01-15T23:48:41.297Z,-1.19
2024-01-15T23:51:08.312Z,-1.21
2024-01-15T23:53:35.033Z,-1.22
2024-01-15T23:56:01.616Z,-1.27
2024-01-15T23:58:28.115Z,-1.31
